sensor_id;sensor_type;location;lat;lon;timestamp;temperature;humidity
6879;DHT22;3478;51.462;7.338;2023-06-10T00:04:21;20.00;97.10
6879;DHT22;3478;51.462;7.338;2023-06-10T00:09:22;19.90;97.70
6879;DHT22;3478;51.462;7.338;2023-06-10T00:14:26;19.90;98.30
6879;DHT22;3478;51.462;7.338;2023-06-10T00:19:27;19.90;99.00
6879;DHT22;3478;51.462;7.338;2023-06-10T00:24:30;19.90;99.10
6879;DHT22;3478;51.462;7.338;2023-06-10T00:29:34;19.90;99.60
6879;DHT22;3478;51.462;7.338;2023-06-10T00:34:36;19.80;99.90
6879;DHT22;3478;51.462;7.338;2023-06-10T00:39:37;19.80;99.90
6879;DHT22;3478;51.462;7.338;2023-06-10T00:44:41;19.80;99.90
6879;DHT22;3478;51.462;7.338;2023-06-10T00:49:43;19.70;99.90
6879;DHT22;3478;51.462;7.338;2023-06-10T00:54:46;19.70;99.90
6879;DHT22;3478;51.462;7.338;2023-06-10T00:59:49;19.70;99.90
6879;DHT22;3478;51.462;7.338;2023-06-10T01:04:51;19.60;99.90
6879;DHT22;3478;51.462;7.338;2023-06-10T01:09:55;19.50;99.90
6879;DHT22;3478;51.462;7.338;2023-06-10T01:15:02;19.50;99.90
6879;DHT22;3478;51.462;7.338;2023-06-10T01:20:06;19.40;99.90
6879;DHT22;3478;51.462;7.338;2023-06-10T01:25:14;19.40;99.90
6879;DHT22;3478;51.462;7.338;2023-06-10T01:30:18;19.30;99.90
6879;DHT22;3478;51.462;7.338;2023-06-10T01:35:25;19.20;99.90
6879;DHT22;3478;51.462;7.338;2023-06-10T01:40:29;19.20;99.90
6879;DHT22;3478;51.462;7.338;2023-06-10T01:45:31;19.20;99.90
6879;DHT22;3478;51.462;7.338;2023-06-10T01:50:33;19.10;99.90
6879;DHT22;3478;51.462;7.338;2023-06-10T01:55:36;19.00;99.90
6879;DHT22;3478;51.462;7.338;2023-06-10T02:00:38;18.90;99.90
6879;DHT22;3478;51.462;7.338;2023-06-10T02:05:40;18.90;99.90
6879;DHT22;3478;51.462;7.338;2023-06-10T02:10:44;18.80;99.90
6879;DHT22;3478;51.462;7.338;2023-06-10T02:15:46;18.70;99.90
6879;DHT22;3478;51.462;7.338;2023-06-10T02:20:48;18.70;99.90
6879;DHT22;3478;51.462;7.338;2023-06-10T02:25:51;18.60;99.90
6879;DHT22;3478;51.462;7.338;2023-06-10T02:30:53;18.60;99.90
6879;DHT22;3478;51.462;7.338;2023-06-10T02:35:57;18.50;99.90
6879;DHT22;3478;51.462;7.338;2023-06-10T02:41:00;18.50;99.90
6879;DHT22;3478;51.462;7.338;2023-06-10T02:46:02;18.40;99.90
6879;DHT22;3478;51.462;7.338;2023-06-10T02:51:04;18.40;99.90
6879;DHT22;3478;51.462;7.338;2023-06-10T02:56:08;18.30;99.90
6879;DHT22;3478;51.462;7.338;2023-06-10T03:01:10;18.30;99.90
6879;DHT22;3478;51.462;7.338;2023-06-10T03:06:12;18.20;99.90
6879;DHT22;3478;51.462;7.338;2023-06-10T03:11:16;18.10;99.90
6879;DHT22;3478;51.462;7.338;2023-06-10T03:16:20;18.10;99.90
6879;DHT22;3478;51.462;7.338;2023-06-10T03:21:22;18.00;99.90
6879;DHT22;3478;51.462;7.338;2023-06-10T03:26:26;18.00;99.90
6879;DHT22;3478;51.462;7.338;2023-06-10T03:31:28;17.90;99.90
6879;DHT22;3478;51.462;7.338;2023-06-10T03:36:30;18.00;99.90
6879;DHT22;3478;51.462;7.338;2023-06-10T03:41:33;18.10;99.90
6879;DHT22;3478;51.462;7.338;2023-06-10T03:46:35;18.10;99.90
6879;DHT22;3478;51.462;7.338;2023-06-10T03:51:37;18.00;99.90
6879;DHT22;3478;51.462;7.338;2023-06-10T03:56:40;18.00;99.90
6879;DHT22;3478;51.462;7.338;2023-06-10T04:01:42;17.90;99.90
6879;DHT22;3478;51.462;7.338;2023-06-10T04:06:45;17.90;99.90
6879;DHT22;3478;51.462;7.338;2023-06-10T04:11:49;17.90;99.90
6879;DHT22;3478;51.462;7.338;2023-06-10T04:16:50;17.80;99.90
6879;DHT22;3478;51.462;7.338;2023-06-10T04:21:52;17.90;99.90
6879;DHT22;3478;51.462;7.338;2023-06-10T04:26:56;18.00;99.90
6879;DHT22;3478;51.462;7.338;2023-06-10T04:31:58;18.10;99.90
6879;DHT22;3478;51.462;7.338;2023-06-10T04:37:00;18.20;99.90
6879;DHT22;3478;51.462;7.338;2023-06-10T04:42:05;18.40;99.90
6879;DHT22;3478;51.462;7.338;2023-06-10T04:47:07;18.50;99.90
6879;DHT22;3478;51.462;7.338;2023-06-10T04:52:09;18.60;99.90
6879;DHT22;3478;51.462;7.338;2023-06-10T04:57:13;18.70;99.90
6879;DHT22;3478;51.462;7.338;2023-06-10T05:02:15;18.80;99.90
6879;DHT22;3478;51.462;7.338;2023-06-10T05:07:17;18.80;99.90
6879;DHT22;3478;51.462;7.338;2023-06-10T05:12:20;19.00;99.90
6879;DHT22;3478;51.462;7.338;2023-06-10T05:17:22;19.20;99.90
6879;DHT22;3478;51.462;7.338;2023-06-10T05:22:25;19.30;99.90
6879;DHT22;3478;51.462;7.338;2023-06-10T05:27:29;19.40;99.90
6879;DHT22;3478;51.462;7.338;2023-06-10T05:32:31;19.60;99.90
6879;DHT22;3478;51.462;7.338;2023-06-10T05:37:34;19.80;99.90
6879;DHT22;3478;51.462;7.338;2023-06-10T05:42:38;19.90;99.90
6879;DHT22;3478;51.462;7.338;2023-06-10T05:47:41;20.10;99.90
6879;DHT22;3478;51.462;7.338;2023-06-10T05:52:42;20.20;99.90
6879;DHT22;3478;51.462;7.338;2023-06-10T05:57:46;20.40;99.90
6879;DHT22;3478;51.462;7.338;2023-06-10T06:02:53;20.50;99.90
6879;DHT22;3478;51.462;7.338;2023-06-10T06:07:56;20.60;99.90
6879;DHT22;3478;51.462;7.338;2023-06-10T06:13:00;20.70;99.90
6879;DHT22;3478;51.462;7.338;2023-06-10T06:18:02;20.90;99.90
6879;DHT22;3478;51.462;7.338;2023-06-10T06:23:04;21.00;99.90
6879;DHT22;3478;51.462;7.338;2023-06-10T06:28:09;21.30;99.90
6879;DHT22;3478;51.462;7.338;2023-06-10T06:33:12;21.40;99.90
6879;DHT22;3478;51.462;7.338;2023-06-10T06:38:14;21.50;99.90
6879;DHT22;3478;51.462;7.338;2023-06-10T06:43:17;21.70;99.90
6879;DHT22;3478;51.462;7.338;2023-06-10T06:48:19;21.90;99.90
6879;DHT22;3478;51.462;7.338;2023-06-10T06:53:21;22.10;99.90
6879;DHT22;3478;51.462;7.338;2023-06-10T06:58:24;22.20;99.90
6879;DHT22;3478;51.462;7.338;2023-06-10T07:03:26;22.40;99.90
6879;DHT22;3478;51.462;7.338;2023-06-10T07:08:28;22.50;99.90
6879;DHT22;3478;51.462;7.338;2023-06-10T07:13:31;22.50;99.90
6879;DHT22;3478;51.462;7.338;2023-06-10T07:18:33;22.80;99.90
6879;DHT22;3478;51.462;7.338;2023-06-10T07:23:35;22.80;99.90
6879;DHT22;3478;51.462;7.338;2023-06-10T07:28:39;23.00;99.90
6879;DHT22;3478;51.462;7.338;2023-06-10T07:33:41;23.10;99.90
6879;DHT22;3478;51.462;7.338;2023-06-10T07:38:44;23.20;99.90
6879;DHT22;3478;51.462;7.338;2023-06-10T07:43:47;23.30;99.90
6879;DHT22;3478;51.462;7.338;2023-06-10T07:48:55;23.40;99.90
6879;DHT22;3478;51.462;7.338;2023-06-10T07:53:56;23.50;99.90
6879;DHT22;3478;51.462;7.338;2023-06-10T07:59:00;23.50;99.90
6879;DHT22;3478;51.462;7.338;2023-06-10T08:04:03;23.60;99.90
6879;DHT22;3478;51.462;7.338;2023-06-10T08:09:05;23.70;99.90
6879;DHT22;3478;51.462;7.338;2023-06-10T08:14:09;24.00;99.90
6879;DHT22;3478;51.462;7.338;2023-06-10T08:19:11;24.10;99.20
6879;DHT22;3478;51.462;7.338;2023-06-10T08:24:12;24.20;99.00
6879;DHT22;3478;51.462;7.338;2023-06-10T08:29:18;24.40;99.00
6879;DHT22;3478;51.462;7.338;2023-06-10T08:34:20;24.60;99.50
6879;DHT22;3478;51.462;7.338;2023-06-10T08:39:22;24.70;98.50
6879;DHT22;3478;51.462;7.338;2023-06-10T08:44:28;24.90;97.90
6879;DHT22;3478;51.462;7.338;2023-06-10T08:49:31;25.10;97.00
6879;DHT22;3478;51.462;7.338;2023-06-10T08:54:36;25.30;97.20
6879;DHT22;3478;51.462;7.338;2023-06-10T08:59:41;25.70;96.90
6879;DHT22;3478;51.462;7.338;2023-06-10T09:04:43;26.00;96.90
6879;DHT22;3478;51.462;7.338;2023-06-10T09:09:46;26.20;96.70
6879;DHT22;3478;51.462;7.338;2023-06-10T09:14:49;26.60;93.90
6879;DHT22;3478;51.462;7.338;2023-06-10T09:19:52;26.90;94.70
6879;DHT22;3478;51.462;7.338;2023-06-10T09:25:03;27.40;94.50
6879;DHT22;3478;51.462;7.338;2023-06-10T09:30:08;27.90;93.70
6879;DHT22;3478;51.462;7.338;2023-06-10T09:35:11;28.20;90.80
6879;DHT22;3478;51.462;7.338;2023-06-10T09:40:13;28.60;90.20
6879;DHT22;3478;51.462;7.338;2023-06-10T09:45:16;29.00;88.70
6879;DHT22;3478;51.462;7.338;2023-06-10T09:50:18;29.40;87.40
6879;DHT22;3478;51.462;7.338;2023-06-10T09:55:20;29.90;86.90
6879;DHT22;3478;51.462;7.338;2023-06-10T10:00:23;30.50;82.90
6879;DHT22;3478;51.462;7.338;2023-06-10T10:05:27;30.50;77.40
6879;DHT22;3478;51.462;7.338;2023-06-10T10:10:30;30.70;77.90
6879;DHT22;3478;51.462;7.338;2023-06-10T10:15:34;30.80;77.60
6879;DHT22;3478;51.462;7.338;2023-06-10T10:20:47;31.20;75.30
6879;DHT22;3478;51.462;7.338;2023-06-10T10:25:52;31.50;75.60
6879;DHT22;3478;51.462;7.338;2023-06-10T10:31:01;31.60;70.80
6879;DHT22;3478;51.462;7.338;2023-06-10T10:36:06;31.60;69.60
6879;DHT22;3478;51.462;7.338;2023-06-10T10:41:09;32.10;70.40
6879;DHT22;3478;51.462;7.338;2023-06-10T10:46:14;32.60;70.60
6879;DHT22;3478;51.462;7.338;2023-06-10T10:51:17;32.40;64.60
6879;DHT22;3478;51.462;7.338;2023-06-10T10:56:19;32.30;60.50
6879;DHT22;3478;51.462;7.338;2023-06-10T11:01:23;32.40;64.30
6879;DHT22;3478;51.462;7.338;2023-06-10T11:06:25;32.60;59.90
6879;DHT22;3478;51.462;7.338;2023-06-10T11:11:27;33.00;62.40
6879;DHT22;3478;51.462;7.338;2023-06-10T11:16:39;33.50;62.20
6879;DHT22;3478;51.462;7.338;2023-06-10T11:21:58;33.70;59.20
6879;DHT22;3478;51.462;7.338;2023-06-10T11:27:16;33.60;58.80
6879;DHT22;3478;51.462;7.338;2023-06-10T11:32:20;34.40;57.30
6879;DHT22;3478;51.462;7.338;2023-06-10T11:37:22;34.70;54.30
6879;DHT22;3478;51.462;7.338;2023-06-10T11:42:26;34.40;53.80
6879;DHT22;3478;51.462;7.338;2023-06-10T11:47:29;34.30;52.00
6879;DHT22;3478;51.462;7.338;2023-06-10T11:52:31;34.70;54.40
6879;DHT22;3478;51.462;7.338;2023-06-10T11:57:38;35.20;54.20
6879;DHT22;3478;51.462;7.338;2023-06-10T12:02:41;34.80;51.30
6879;DHT22;3478;51.462;7.338;2023-06-10T12:07:43;34.70;53.40
6879;DHT22;3478;51.462;7.338;2023-06-10T12:12:45;35.10;52.50
6879;DHT22;3478;51.462;7.338;2023-06-10T12:17:49;35.90;51.00
6879;DHT22;3478;51.462;7.338;2023-06-10T12:22:51;36.00;49.20
6879;DHT22;3478;51.462;7.338;2023-06-10T12:27:54;36.00;48.00
6879;DHT22;3478;51.462;7.338;2023-06-10T12:32:57;36.70;48.60
6879;DHT22;3478;51.462;7.338;2023-06-10T12:38:01;36.80;49.00
6879;DHT22;3478;51.462;7.338;2023-06-10T12:43:04;36.90;47.80
6879;DHT22;3478;51.462;7.338;2023-06-10T12:48:09;37.20;47.40
6879;DHT22;3478;51.462;7.338;2023-06-10T12:53:11;37.10;44.80
6879;DHT22;3478;51.462;7.338;2023-06-10T12:58:13;36.80;44.20
6879;DHT22;3478;51.462;7.338;2023-06-10T13:03:17;36.60;41.80
6879;DHT22;3478;51.462;7.338;2023-06-10T13:08:19;37.30;44.70
6879;DHT22;3478;51.462;7.338;2023-06-10T13:13:21;37.90;43.30
6879;DHT22;3478;51.462;7.338;2023-06-10T13:18:24;38.70;42.50
6879;DHT22;3478;51.462;7.338;2023-06-10T13:23:26;38.80;41.80
6879;DHT22;3478;51.462;7.338;2023-06-10T13:28:28;38.70;41.50
6879;DHT22;3478;51.462;7.338;2023-06-10T13:33:32;38.00;41.10
6879;DHT22;3478;51.462;7.338;2023-06-10T13:38:34;38.50;40.70
6879;DHT22;3478;51.462;7.338;2023-06-10T13:43:36;38.30;40.00
6879;DHT22;3478;51.462;7.338;2023-06-10T13:48:40;38.30;40.80
6879;DHT22;3478;51.462;7.338;2023-06-10T13:53:42;38.70;40.30
6879;DHT22;3478;51.462;7.338;2023-06-10T13:58:44;38.60;40.00
6879;DHT22;3478;51.462;7.338;2023-06-10T14:03:47;38.70;40.20
6879;DHT22;3478;51.462;7.338;2023-06-10T14:08:49;39.10;40.30
6879;DHT22;3478;51.462;7.338;2023-06-10T14:13:51;39.20;38.90
6879;DHT22;3478;51.462;7.338;2023-06-10T14:18:54;39.10;39.30
6879;DHT22;3478;51.462;7.338;2023-06-10T14:23:57;39.10;39.80
6879;DHT22;3478;51.462;7.338;2023-06-10T14:28:59;38.60;38.80
6879;DHT22;3478;51.462;7.338;2023-06-10T14:34:07;38.30;38.10
6879;DHT22;3478;51.462;7.338;2023-06-10T14:39:09;37.80;38.10
6879;DHT22;3478;51.462;7.338;2023-06-10T14:44:11;38.10;38.50
6879;DHT22;3478;51.462;7.338;2023-06-10T14:49:14;37.60;38.60
6879;DHT22;3478;51.462;7.338;2023-06-10T14:54:16;37.60;39.40
6879;DHT22;3478;51.462;7.338;2023-06-10T14:59:21;37.30;38.20
6879;DHT22;3478;51.462;7.338;2023-06-10T15:04:25;37.60;39.80
6879;DHT22;3478;51.462;7.338;2023-06-10T15:09:27;37.60;38.80
6879;DHT22;3478;51.462;7.338;2023-06-10T15:14:28;37.30;39.10
6879;DHT22;3478;51.462;7.338;2023-06-10T15:19:32;37.40;39.80
6879;DHT22;3478;51.462;7.338;2023-06-10T15:24:34;37.60;39.20
6879;DHT22;3478;51.462;7.338;2023-06-10T15:29:36;37.10;38.50
6879;DHT22;3478;51.462;7.338;2023-06-10T15:34:39;36.90;38.40
6879;DHT22;3478;51.462;7.338;2023-06-10T15:39:41;36.60;39.80
6879;DHT22;3478;51.462;7.338;2023-06-10T15:44:43;36.50;39.90
6879;DHT22;3478;51.462;7.338;2023-06-10T15:49:46;36.30;39.80
6879;DHT22;3478;51.462;7.338;2023-06-10T15:54:48;36.10;40.30
6879;DHT22;3478;51.462;7.338;2023-06-10T15:59:50;36.30;40.40
6879;DHT22;3478;51.462;7.338;2023-06-10T16:04:53;35.70;40.30
6879;DHT22;3478;51.462;7.338;2023-06-10T16:09:55;35.90;40.50
6879;DHT22;3478;51.462;7.338;2023-06-10T16:14:57;35.70;41.40
6879;DHT22;3478;51.462;7.338;2023-06-10T16:20:01;35.60;41.20
6879;DHT22;3478;51.462;7.338;2023-06-10T16:25:04;35.70;41.20
6879;DHT22;3478;51.462;7.338;2023-06-10T16:30:07;35.40;41.70
6879;DHT22;3478;51.462;7.338;2023-06-10T16:35:11;35.40;42.10
6879;DHT22;3478;51.462;7.338;2023-06-10T16:40:13;35.20;42.80
6879;DHT22;3478;51.462;7.338;2023-06-10T16:45:15;35.50;43.00
6879;DHT22;3478;51.462;7.338;2023-06-10T16:50:18;35.30;43.00
6879;DHT22;3478;51.462;7.338;2023-06-10T16:55:20;34.70;42.60
6879;DHT22;3478;51.462;7.338;2023-06-10T17:00:22;34.60;43.70
6879;DHT22;3478;51.462;7.338;2023-06-10T17:05:25;34.20;43.10
6879;DHT22;3478;51.462;7.338;2023-06-10T17:10:27;33.50;44.20
6879;DHT22;3478;51.462;7.338;2023-06-10T17:15:30;33.50;44.50
6879;DHT22;3478;51.462;7.338;2023-06-10T17:20:33;33.50;45.10
6879;DHT22;3478;51.462;7.338;2023-06-10T17:25:35;33.40;45.10
6879;DHT22;3478;51.462;7.338;2023-06-10T17:30:37;33.00;45.50
6879;DHT22;3478;51.462;7.338;2023-06-10T17:35:41;32.90;46.80
6879;DHT22;3478;51.462;7.338;2023-06-10T17:40:43;32.40;45.80
6879;DHT22;3478;51.462;7.338;2023-06-10T17:45:45;32.00;46.20
6879;DHT22;3478;51.462;7.338;2023-06-10T17:50:50;31.50;48.10
6879;DHT22;3478;51.462;7.338;2023-06-10T17:55:52;31.30;48.00
6879;DHT22;3478;51.462;7.338;2023-06-10T18:00:54;31.20;48.70
6879;DHT22;3478;51.462;7.338;2023-06-10T18:05:57;30.70;49.70
6879;DHT22;3478;51.462;7.338;2023-06-10T18:11:00;30.20;50.80
6879;DHT22;3478;51.462;7.338;2023-06-10T18:16:03;29.50;52.40
6879;DHT22;3478;51.462;7.338;2023-06-10T18:21:07;28.90;54.00
6879;DHT22;3478;51.462;7.338;2023-06-10T18:26:10;28.50;55.20
6879;DHT22;3478;51.462;7.338;2023-06-10T18:31:14;28.30;56.10
6879;DHT22;3478;51.462;7.338;2023-06-10T18:36:18;28.20;56.80
6879;DHT22;3478;51.462;7.338;2023-06-10T18:41:20;27.90;57.00
6879;DHT22;3478;51.462;7.338;2023-06-10T18:46:22;27.70;56.20
6879;DHT22;3478;51.462;7.338;2023-06-10T18:51:25;27.50;57.00
6879;DHT22;3478;51.462;7.338;2023-06-10T18:56:27;27.30;57.90
6879;DHT22;3478;51.462;7.338;2023-06-10T19:01:29;27.20;57.40
6879;DHT22;3478;51.462;7.338;2023-06-10T19:06:32;26.90;57.80
6879;DHT22;3478;51.462;7.338;2023-06-10T19:11:35;26.70;58.50
6879;DHT22;3478;51.462;7.338;2023-06-10T19:16:37;26.50;59.10
6879;DHT22;3478;51.462;7.338;2023-06-10T19:21:40;26.30;59.50
6879;DHT22;3478;51.462;7.338;2023-06-10T19:26:42;26.10;60.80
6879;DHT22;3478;51.462;7.338;2023-06-10T19:31:44;25.90;61.40
6879;DHT22;3478;51.462;7.338;2023-06-10T19:36:47;25.80;62.50
6879;DHT22;3478;51.462;7.338;2023-06-10T19:41:49;25.70;63.00
6879;DHT22;3478;51.462;7.338;2023-06-10T19:46:51;25.60;63.50
6879;DHT22;3478;51.462;7.338;2023-06-10T19:51:54;25.40;63.40
6879;DHT22;3478;51.462;7.338;2023-06-10T19:56:56;25.30;64.20
6879;DHT22;3478;51.462;7.338;2023-06-10T20:01:58;25.20;65.10
6879;DHT22;3478;51.462;7.338;2023-06-10T20:07:01;25.00;64.80
6879;DHT22;3478;51.462;7.338;2023-06-10T20:12:04;24.90;65.30
6879;DHT22;3478;51.462;7.338;2023-06-10T20:17:06;24.80;65.80
6879;DHT22;3478;51.462;7.338;2023-06-10T20:22:09;24.70;66.00
6879;DHT22;3478;51.462;7.338;2023-06-10T20:27:12;24.60;66.10
6879;DHT22;3478;51.462;7.338;2023-06-10T20:32:14;24.50;67.20
6879;DHT22;3478;51.462;7.338;2023-06-10T20:37:18;24.50;67.40
6879;DHT22;3478;51.462;7.338;2023-06-10T20:42:20;24.30;67.30
6879;DHT22;3478;51.462;7.338;2023-06-10T20:47:22;24.30;67.60
6879;DHT22;3478;51.462;7.338;2023-06-10T20:52:25;24.20;67.40
6879;DHT22;3478;51.462;7.338;2023-06-10T20:57:27;24.10;68.20
6879;DHT22;3478;51.462;7.338;2023-06-10T21:02:29;24.00;68.30
6879;DHT22;3478;51.462;7.338;2023-06-10T21:07:32;23.90;68.80
6879;DHT22;3478;51.462;7.338;2023-06-10T21:12:34;23.80;69.20
6879;DHT22;3478;51.462;7.338;2023-06-10T21:17:37;23.70;69.50
6879;DHT22;3478;51.462;7.338;2023-06-10T21:22:40;23.60;70.10
6879;DHT22;3478;51.462;7.338;2023-06-10T21:27:42;23.50;71.10
6879;DHT22;3478;51.462;7.338;2023-06-10T21:32:44;23.40;71.80
6879;DHT22;3478;51.462;7.338;2023-06-10T21:37:48;23.30;72.70
6879;DHT22;3478;51.462;7.338;2023-06-10T21:42:50;23.30;73.10
6879;DHT22;3478;51.462;7.338;2023-06-10T21:47:52;23.20;73.60
6879;DHT22;3478;51.462;7.338;2023-06-10T21:52:56;23.20;74.20
6879;DHT22;3478;51.462;7.338;2023-06-10T21:57:58;23.10;75.30
6879;DHT22;3478;51.462;7.338;2023-06-10T22:03:00;23.10;75.60
6879;DHT22;3478;51.462;7.338;2023-06-10T22:08:04;23.00;76.80
6879;DHT22;3478;51.462;7.338;2023-06-10T22:13:06;22.90;77.70
6879;DHT22;3478;51.462;7.338;2023-06-10T22:18:08;22.80;78.20
6879;DHT22;3478;51.462;7.338;2023-06-10T22:23:18;22.80;79.10
6879;DHT22;3478;51.462;7.338;2023-06-10T22:28:20;22.70;79.00
6879;DHT22;3478;51.462;7.338;2023-06-10T22:33:22;22.70;79.10
6879;DHT22;3478;51.462;7.338;2023-06-10T22:38:25;22.60;80.40
6879;DHT22;3478;51.462;7.338;2023-06-10T22:43:27;22.60;80.20
6879;DHT22;3478;51.462;7.338;2023-06-10T22:48:29;22.50;82.20
6879;DHT22;3478;51.462;7.338;2023-06-10T22:53:33;22.40;82.60
6879;DHT22;3478;51.462;7.338;2023-06-10T22:58:35;22.30;84.00
6879;DHT22;3478;51.462;7.338;2023-06-10T23:03:37;22.20;85.10
6879;DHT22;3478;51.462;7.338;2023-06-10T23:08:46;22.10;86.10
6879;DHT22;3478;51.462;7.338;2023-06-10T23:13:50;22.10;88.00
6879;DHT22;3478;51.462;7.338;2023-06-10T23:18:53;22.00;89.40
6879;DHT22;3478;51.462;7.338;2023-06-10T23:23:56;21.90;90.30
6879;DHT22;3478;51.462;7.338;2023-06-10T23:28:59;21.80;91.00
6879;DHT22;3478;51.462;7.338;2023-06-10T23:34:01;21.80;91.30
6879;DHT22;3478;51.462;7.338;2023-06-10T23:39:06;21.70;91.90
6879;DHT22;3478;51.462;7.338;2023-06-10T23:44:09;21.60;92.80
6879;DHT22;3478;51.462;7.338;2023-06-10T23:49:11;21.50;93.50
6879;DHT22;3478;51.462;7.338;2023-06-10T23:54:14;21.50;94.50
6879;DHT22;3478;51.462;7.338;2023-06-10T23:59:16;21.40;94.80
